Berta — V2BQ6 — position and weather

sailwx.info

Track history (hours):
 
Tides and Currents Weather Stations Pressure Air Temp Water Temp Dewpoint Dewpoint Depression Visibility Wind Speed Wind Dir Waves Ship Positions

Berta

Last reported at 2016-Sep-27 00:33 UTC. Time now 2016-Sep-27 13:51 UTC.
Position N 54°04' E 007°59'.

Length 118 m; draft 6.2 m.

Type: Cargo ship. MMSI: 304586000.

Date/timePositionNaut miles runAvg speedWind from/ knotsBaromVisibWave heightAir tempDewpointWater temp
2016-Sep-27 00:33N 54°04' E 007°59'5213.0
2016-Sep-26 20:33N 53°48' E 009°23'1211.6
2016-Sep-26 19:34N 53°38' E 009°32'14 3.6
2016-Sep-26 15:32N 53°32' E 009°55'0 0.0
2016-Sep-26 13:32N 53°32' E 009°55'0 0.0
2016-Sep-26 11:32N 53°32' E 009°55'2 0.7
2016-Sep-26 08:31N 53°31' E 009°56'17 2.9
2016-Sep-26 02:34N 53°39' E 009°31'1110.5
2016-Sep-26 01:33N 53°48' E 009°22'10 9.7
2016-Sep-26 00:34N 53°53' E 009°08'29 9.8
2016-Sep-25 21:33N 53°59' E 008°19'36 8.9
2016-Sep-25 17:34N 54°17' E 007°27'9 9.2
2016-Sep-25 16:33N 54°25' E 007°19'9 9.0
2016-Sep-25 15:34N 54°33' E 007°12'1010.3
2016-Sep-25 14:34N 54°43' E 007°04'2211.0
2016-Sep-25 12:33N 55°02' E 006°47'1010.4
2016-Sep-25 11:33N 55°12' E 006°40'1010.3
2016-Sep-25 10:33N 55°22' E 006°33'  
2016-Sep-22 23:33N 63°01' E 006°39'29 9.6
2016-Sep-22 20:33N 63°16' E 007°34'44 2.8
2016-Sep-22 04:26N 63°21' E 009°12'38 9.9
2016-Sep-22 00:33N 63°13' E 007°49'1212.1
2016-Sep-21 23:33N 63°12' E 007°22'1312.8
2016-Sep-21 22:33N 63°05' E 006°57'3913.2
2016-Sep-21 19:33N 62°41' E 005°49'43311.7
2016-Sep-20 06:33N 55°29' E 006°37'5714.1
2016-Sep-20 02:33N 54°36' E 007°12'4013.5
2016-Sep-19 23:33N 54°05' E 007°56'5513.6
2016-Sep-19 19:33N 53°47' E 009°23'1514.7
2016-Sep-19 18:33N 53°35' E 009°38'12 5.9
2016-Sep-19 16:32N 53°30' E 009°56'0 0.0
2016-Sep-19 14:32N 53°30' E 009°56'0 0.0
2016-Sep-19 13:33N 53°30' E 009°56'2 2.3
2016-Sep-19 12:32N 53°32' E 009°55'0 0.0
2016-Sep-19 11:32N 53°32' E 009°55'0 0.0
2016-Sep-19 09:32N 53°32' E 009°55'0 0.0
2016-Sep-19 07:32N 53°32' E 009°55'0 0.0
2016-Sep-19 06:32N 53°32' E 009°55'5 1.6
2016-Sep-19 03:34N 53°33' E 009°47'9 9.1
2016-Sep-19 02:34N 53°37' E 009°33'0 0.0
2016-Sep-19 00:34N 53°37' E 009°33'0 0.0
2016-Sep-18 19:34N 53°37' E 009°33'27 6.8
2016-Sep-18 15:34N 53°50' E 008°53'1010.0
2016-Sep-18 14:33N 53°56' E 008°39'4611.6
2016-Sep-18 10:33N 54°16' E 007°27'1313.1
2016-Sep-18 09:33N 54°28' E 007°17'  
Track history (hours):
 
Tides and Currents Weather Stations Pressure Air Temp Water Temp Dewpoint Dewpoint Depression Visibility Wind Speed Wind Dir Waves Ship Positions

Berta

Last reported at 2016-Sep-27 00:33 UTC. Time now 2016-Sep-27 13:51 UTC.
Position N 54°04' E 007°59'.

Length 118 m; draft 6.2 m.

Type: Cargo ship. MMSI: 304586000.

Date/timePositionNaut miles runAvg speedWind from/ knotsBaromVisibWave heightAir tempDewpointWater temp
2016-Sep-27 00:33N 54°04' E 007°59'5213.0
2016-Sep-26 20:33N 53°48' E 009°23'1211.6
2016-Sep-26 19:34N 53°38' E 009°32'14 3.6
2016-Sep-26 15:32N 53°32' E 009°55'0 0.0
2016-Sep-26 13:32N 53°32' E 009°55'0 0.0
2016-Sep-26 11:32N 53°32' E 009°55'2 0.7
2016-Sep-26 08:31N 53°31' E 009°56'17 2.9
2016-Sep-26 02:34N 53°39' E 009°31'1110.5
2016-Sep-26 01:33N 53°48' E 009°22'10 9.7
2016-Sep-26 00:34N 53°53' E 009°08'29 9.8
2016-Sep-25 21:33N 53°59' E 008°19'36 8.9
2016-Sep-25 17:34N 54°17' E 007°27'9 9.2
2016-Sep-25 16:33N 54°25' E 007°19'9 9.0
2016-Sep-25 15:34N 54°33' E 007°12'1010.3
2016-Sep-25 14:34N 54°43' E 007°04'2211.0
2016-Sep-25 12:33N 55°02' E 006°47'1010.4
2016-Sep-25 11:33N 55°12' E 006°40'1010.3
2016-Sep-25 10:33N 55°22' E 006°33'  
2016-Sep-22 23:33N 63°01' E 006°39'29 9.6
2016-Sep-22 20:33N 63°16' E 007°34'44 2.8
2016-Sep-22 04:26N 63°21' E 009°12'38 9.9
2016-Sep-22 00:33N 63°13' E 007°49'1212.1
2016-Sep-21 23:33N 63°12' E 007°22'1312.8
2016-Sep-21 22:33N 63°05' E 006°57'3913.2
2016-Sep-21 19:33N 62°41' E 005°49'43311.7
2016-Sep-20 06:33N 55°29' E 006°37'5714.1
2016-Sep-20 02:33N 54°36' E 007°12'4013.5
2016-Sep-19 23:33N 54°05' E 007°56'5513.6
2016-Sep-19 19:33N 53°47' E 009°23'1514.7
2016-Sep-19 18:33N 53°35' E 009°38'12 5.9
2016-Sep-19 16:32N 53°30' E 009°56'0 0.0
2016-Sep-19 14:32N 53°30' E 009°56'0 0.0
2016-Sep-19 13:33N 53°30' E 009°56'2 2.3
2016-Sep-19 12:32N 53°32' E 009°55'0 0.0
2016-Sep-19 11:32N 53°32' E 009°55'0 0.0
2016-Sep-19 09:32N 53°32' E 009°55'0 0.0
2016-Sep-19 07:32N 53°32' E 009°55'0 0.0
2016-Sep-19 06:32N 53°32' E 009°55'5 1.6
2016-Sep-19 03:34N 53°33' E 009°47'9 9.1
2016-Sep-19 02:34N 53°37' E 009°33'0 0.0
2016-Sep-19 00:34N 53°37' E 009°33'0 0.0
2016-Sep-18 19:34N 53°37' E 009°33'27 6.8
2016-Sep-18 15:34N 53°50' E 008°53'1010.0
2016-Sep-18 14:33N 53°56' E 008°39'4611.6
2016-Sep-18 10:33N 54°16' E 007°27'1313.1
2016-Sep-18 09:33N 54°28' E 007°17'  

Dump ship's entire track history